Time;durP1;ratioP1;P1;durP2;ratioP2;P2;SDS_P1;SDS_P2;PMS_P1;PMS_P2;Temp;Humidity;BMP_temperature;BMP_pressure;BME280_temperature;BME280_humidity;BME280_pressure;Samples;Min_cycle;Max_cycle;Signal;HPM_P1;HPM_P2
2023/08/23 00:00:16;;;;;;;18.80;15.90;;;;;;;23.18;100.00;100374.16;1437734;90;21361;-81
2023/08/23 00:02:43;;;;;;;26.73;17.60;;;;;;;23.16;100.00;100366.31;1432827;91;22257;-80
2023/08/23 00:05:09;;;;;;;19.27;15.05;;;;;;;23.15;100.00;100370.58;1425409;90;21324;-80
2023/08/23 00:07:35;;;;;;;18.85;16.85;;;;;;;23.11;100.00;100364.83;1434261;90;21331;-82
2023/08/23 00:10:02;;;;;;;17.55;15.75;;;;;;;23.06;100.00;100357.95;1435307;90;21449;-82
2023/08/23 00:12:28;;;;;;;18.60;16.67;;;;;;;23.01;100.00;100365.09;1427166;90;21561;-82
2023/08/23 00:18:55;;;;;;;18.48;15.68;;;;;;;22.89;100.00;100354.23;1432898;91;22322;-81
2023/08/23 00:21:22;;;;;;;22.00;14.35;;;;;;;22.71;100.00;100355.13;1426438;90;21398;-80
2023/08/23 00:23:48;;;;;;;21.25;14.28;;;;;;;22.55;100.00;100355.75;1433049;91;21576;-80
2023/08/23 00:26:20;;;;;;;18.25;15.90;;;;;;;22.42;100.00;100361.63;1426284;91;21390;-82
2023/08/23 00:28:47;;;;;;;22.00;15.10;;;;;;;22.36;100.00;100363.89;1434146;90;21512;-81
2023/08/23 00:31:13;;;;;;;17.05;15.32;;;;;;;22.33;100.00;100364.34;1427423;90;21434;-79
2023/08/23 00:33:39;;;;;;;17.60;13.83;;;;;;;22.34;100.00;100362.46;1434103;91;21384;-80
2023/08/23 00:36:05;;;;;;;19.40;15.15;;;;;;;22.34;100.00;100355.19;1432289;90;21434;-81
2023/08/23 00:38:32;;;;;;;20.97;15.70;;;;;;;22.36;100.00;100359.84;1432180;90;22388;-80
2023/08/23 00:40:58;;;;;;;15.35;13.83;;;;;;;22.38;100.00;100361.77;1422999;91;21361;-80
2023/08/23 00:43:24;;;;;;;18.32;14.38;;;;;;;22.40;100.00;100356.98;1419054;91;21462;-80
2023/08/23 00:45:50;;;;;;;17.07;15.28;;;;;;;22.39;100.00;100353.99;1432354;91;21456;-80
2023/08/23 00:48:17;;;;;;;19.45;16.30;;;;;;;22.36;100.00;100345.02;1424133;91;21547;-80
2023/08/23 00:50:45;;;;;;;22.40;15.60;;;;;;;22.35;100.00;100344.69;1434219;91;21330;-82
2023/08/23 00:53:13;;;;;;;19.10;14.90;;;;;;;22.33;100.00;100336.53;1437998;91;21404;-82
2023/08/23 00:55:40;;;;;;;23.67;15.80;;;;;;;22.33;100.00;100337.38;1438722;90;21523;-82
2023/08/23 00:58:07;;;;;;;16.90;15.18;;;;;;;22.31;100.00;100342.17;1436902;91;21419;-82
2023/08/23 01:00:34;;;;;;;26.95;15.98;;;;;;;22.27;100.00;100339.64;1427292;90;22404;-82
2023/08/23 01:03:00;;;;;;;16.67;14.28;;;;;;;22.26;100.00;100337.97;1427571;91;22299;-82
2023/08/23 01:05:58;;;;;;;26.75;17.30;;;;;;;22.25;100.00;100333.64;1427983;91;21362;-82
2023/08/23 01:09:03;;;;;;;20.92;16.87;;;;;;;22.27;100.00;100328.86;1423692;91;22295;-82
2023/08/23 01:11:53;;;;;;;18.65;15.20;;;;;;;22.31;100.00;100325.98;1434961;90;21486;-81
2023/08/23 01:14:34;;;;;;;19.87;14.85;;;;;;;22.28;100.00;100313.78;1428298;91;22532;-82
2023/08/23 01:17:01;;;;;;;24.92;15.30;;;;;;;22.28;100.00;100309.74;1423588;90;21585;-82
2023/08/23 01:19:47;;;;;;;23.75;16.17;;;;;;;22.30;100.00;100304.14;1426123;91;22299;-80
2023/08/23 01:22:19;;;;;;;19.98;14.63;;;;;;;22.30;100.00;100302.79;1434243;90;21589;-80
2023/08/23 01:24:47;;;;;;;18.15;15.70;;;;;;;22.32;100.00;100292.58;1426450;91;21435;-79
2023/08/23 01:27:16;;;;;;;18.40;14.20;;;;;;;22.33;100.00;100290.20;1426972;90;21360;-80
2023/08/23 01:29:45;;;;;;;22.93;14.70;;;;;;;22.33;100.00;100294.25;1438151;91;21330;-80
2023/08/23 01:32:47;;;;;;;23.90;15.50;;;;;;;22.34;100.00;100294.53;1432001;90;21501;-80
2023/08/23 01:35:34;;;;;;;20.90;15.10;;;;;;;22.34;100.00;100293.18;1423522;91;21496;-80
2023/08/23 01:38:01;;;;;;;16.97;14.95;;;;;;;22.34;100.00;100293.18;1417628;91;21680;-79
2023/08/23 01:40:28;;;;;;;17.42;15.63;;;;;;;22.34;100.00;100301.80;1434188;91;22159;-80
2023/08/23 01:42:55;;;;;;;25.70;16.27;;;;;;;22.33;100.00;100299.64;1437084;90;21375;-80
2023/08/23 01:45:22;;;;;;;15.83;13.98;;;;;;;22.34;100.00;100303.16;1433919;91;22299;-80
2023/08/23 01:47:49;;;;;;;19.85;15.23;;;;;;;22.33;100.00;100299.64;1434137;91;21456;-82
2023/08/23 01:50:16;;;;;;;19.27;15.80;;;;;;;22.34;100.00;100301.27;1403544;91;21914;-81
2023/08/23 01:52:42;;;;;;;22.27;16.87;;;;;;;22.33;100.00;100305.03;1435575;91;21575;-82
2023/08/23 01:55:08;;;;;;;21.52;17.92;;;;;;;22.30;100.00;100310.34;1422700;91;22305;-80
2023/08/23 01:57:36;;;;;;;21.57;16.37;;;;;;;22.29;100.00;100312.73;1428058;91;22713;-80
2023/08/23 02:00:04;;;;;;;18.90;16.65;;;;;;;22.28;100.00;100311.09;1428889;90;21419;-79
2023/08/23 02:02:30;;;;;;;18.00;16.00;;;;;;;22.28;100.00;100311.63;1427943;91;21471;-80
2023/08/23 02:04:57;;;;;;;18.35;15.25;;;;;;;22.26;100.00;100312.36;1434751;91;21470;-80
2023/08/23 02:07:24;;;;;;;19.42;16.42;;;;;;;22.23;100.00;100316.34;1426778;90;21494;-80
2023/08/23 02:09:50;;;;;;;21.20;17.92;;;;;;;22.21;100.00;100306.83;1428949;90;21426;-82
2023/08/23 02:12:16;;;;;;;17.98;15.53;;;;;;;22.19;100.00;100307.59;1430893;91;22440;-81
2023/08/23 02:14:42;;;;;;;18.40;14.73;;;;;;;22.19;100.00;100298.16;1436248;91;21339;-81
2023/08/23 02:17:08;;;;;;;23.10;16.07;;;;;;;22.20;100.00;100291.72;1434674;90;21426;-81
2023/08/23 02:19:34;;;;;;;17.27;15.50;;;;;;;22.21;100.00;100293.34;1434244;91;21456;-81
2023/08/23 02:22:01;;;;;;;22.05;14.35;;;;;;;22.20;100.00;100284.45;1435971;91;22410;-80
2023/08/23 02:24:27;;;;;;;17.62;15.78;;;;;;;22.21;100.00;100286.11;1418102;91;21392;-80
2023/08/23 02:26:53;;;;;;;16.23;14.25;;;;;;;22.23;100.00;100285.86;1429745;91;21392;-79
2023/08/23 02:29:19;;;;;;;18.95;14.33;;;;;;;22.24;100.00;100284.80;1431906;91;21397;-79
2023/08/23 02:31:45;;;;;;;19.98;15.48;;;;;;;22.24;100.00;100282.11;1424964;91;22255;-80
2023/08/23 02:34:12;;;;;;;17.48;15.55;;;;;;;22.25;100.00;100278.38;1430377;90;21524;-80
2023/08/23 02:36:38;;;;;;;19.35;14.78;;;;;;;22.25;100.00;100278.38;1411895;91;21473;-80
2023/08/23 02:39:04;;;;;;;21.75;14.93;;;;;;;22.29;100.00;100276.86;1431362;91;21500;-79
2023/08/23 02:41:31;;;;;;;18.50;16.52;;;;;;;22.32;100.00;100273.70;1434710;90;21526;-81
2023/08/23 02:43:57;;;;;;;21.00;16.55;;;;;;;22.35;100.00;100275.13;1430185;90;22456;-82
2023/08/23 02:46:23;;;;;;;17.60;14.90;;;;;;;22.36;100.00;100272.22;1429384;90;21368;-81
2023/08/23 02:48:50;;;;;;;21.55;16.87;;;;;;;22.38;100.00;100280.87;1428606;91;21359;-81
2023/08/23 02:51:16;;;;;;;19.42;16.57;;;;;;;22.39;100.00;100273.11;1429601;90;22396;-82
2023/08/23 02:53:42;;;;;;;18.37;16.27;;;;;;;22.37;100.00;100273.85;1431622;91;21323;-80
2023/08/23 02:56:08;;;;;;;22.70;16.05;;;;;;;22.33;100.00;100280.77;1426362;91;21355;-80
2023/08/23 02:58:34;;;;;;;19.82;14.95;;;;;;;22.26;100.00;100288.92;1437652;91;21549;-81
2023/08/23 03:01:02;;;;;;;17.35;15.48;;;;;;;22.15;100.00;100288.84;1431225;91;21427;-81
2023/08/23 03:03:29;;;;;;;19.25;16.00;;;;;;;22.07;100.00;100278.69;1428717;91;22431;-81
2023/08/23 03:05:57;;;;;;;16.67;14.90;;;;;;;22.07;100.00;100281.91;1425087;91;21383;-82
2023/08/23 03:08:25;;;;;;;19.05;14.30;;;;;;;22.06;100.00;100278.37;1431951;91;21338;-80
2023/08/23 03:10:51;;;;;;;20.97;15.25;;;;;;;22.05;100.00;100280.77;1417433;91;21663;-82
2023/08/23 03:13:18;;;;;;;18.07;15.72;;;;;;;22.05;100.00;100279.95;1431978;90;21331;-82
2023/08/23 03:15:44;;;;;;;25.90;17.75;;;;;;;22.01;100.00;100280.94;1434585;91;21434;-81
2023/08/23 03:18:10;;;;;;;17.73;15.70;;;;;;;21.95;100.00;100279.66;1427264;91;21522;-82
2023/08/23 03:20:36;;;;;;;16.32;14.63;;;;;;;21.93;100.00;100283.94;1434292;90;21427;-80
2023/08/23 03:23:02;;;;;;;17.87;15.68;;;;;;;21.92;100.00;100282.80;1424337;90;21375;-80
2023/08/23 03:25:28;;;;;;;17.85;15.10;;;;;;;21.93;100.00;100274.51;1430623;91;21972;-80
2023/08/23 03:27:54;;;;;;;18.40;16.45;;;;;;;21.91;100.00;100272.55;1429751;91;21457;-81
2023/08/23 03:30:21;;;;;;;17.73;15.55;;;;;;;21.89;100.00;100277.34;1423793;91;22328;-81
2023/08/23 03:32:47;;;;;;;16.57;14.60;;;;;;;21.88;100.00;100278.39;1433195;90;21867;-81
2023/08/23 03:35:14;;;;;;;20.72;16.32;;;;;;;21.90;100.00;100270.92;1430998;91;21375;-81
2023/08/23 03:37:40;;;;;;;18.23;15.00;;;;;;;21.92;100.00;100270.67;1430527;91;21383;-81
2023/08/23 03:40:07;;;;;;;22.93;15.15;;;;;;;21.94;100.00;100270.75;1429314;90;21493;-80
2023/08/23 03:42:33;;;;;;;17.37;13.95;;;;;;;21.96;100.00;100268.66;1428053;90;22247;-79
2023/08/23 03:44:59;;;;;;;18.67;15.03;;;;;;;21.97;100.00;100262.22;1433717;90;21390;-80
2023/08/23 03:47:25;;;;;;;20.37;14.45;;;;;;;22.02;100.00;100266.41;1436379;90;21404;-80
2023/08/23 03:49:52;;;;;;;18.42;14.95;;;;;;;22.04;100.00;100267.54;1425077;91;21471;-81
2023/08/23 03:52:18;;;;;;;16.55;14.75;;;;;;;22.04;100.00;100272.93;1432267;91;21571;-81
2023/08/23 03:54:44;;;;;;;36.85;17.12;;;;;;;22.00;100.00;100275.77;1427710;91;21455;-81
2023/08/23 03:57:10;;;;;;;24.27;14.10;;;;;;;21.95;100.00;100280.50;1430883;91;21383;-80
2023/08/23 03:59:36;;;;;;;19.75;15.08;;;;;;;21.95;100.00;100286.39;1431753;91;21567;-81
2023/08/23 04:02:03;;;;;;;25.50;14.33;;;;;;;21.97;100.00;100283.77;1425922;91;21419;-81
2023/08/23 04:04:29;;;;;;;18.98;13.98;;;;;;;21.99;100.00;100282.21;1428079;91;21346;-81
2023/08/23 04:06:55;;;;;;;17.98;13.05;;;;;;;22.02;100.00;100282.58;1435575;91;21471;-82
2023/08/23 04:09:22;;;;;;;19.32;14.20;;;;;;;22.03;100.00;100285.56;1431268;90;21375;-82
2023/08/23 04:11:48;;;;;;;27.50;14.85;;;;;;;22.00;100.00;100292.75;1428126;90;21486;-81
2023/08/23 04:14:14;;;;;;;17.48;15.40;;;;;;;21.97;100.00;100297.77;1437330;90;22264;-82
2023/08/23 04:16:40;;;;;;;20.48;14.18;;;;;;;21.91;100.00;100297.33;1432182;90;21494;-81
2023/08/23 04:19:07;;;;;;;20.82;14.00;;;;;;;21.87;100.00;100298.31;1432117;90;21486;-81
2023/08/23 04:21:33;;;;;;;16.75;13.05;;;;;;;21.89;100.00;100296.73;1426844;90;21366;-79
2023/08/23 04:24:00;;;;;;;20.85;14.75;;;;;;;21.89;100.00;100293.50;1429269;91;21382;-80
2023/08/23 04:26:28;;;;;;;18.62;15.03;;;;;;;21.84;100.00;100304.16;1430350;90;21309;-80
2023/08/23 04:28:56;;;;;;;23.95;15.80;;;;;;;21.71;100.00;100305.10;1428807;90;21516;-80
2023/08/23 04:31:22;;;;;;;17.07;15.25;;;;;;;21.66;100.00;100312.20;1438598;91;21612;-81
2023/08/23 04:33:48;;;;;;;16.82;15.10;;;;;;;21.66;100.00;100309.52;1439100;90;21420;-81
2023/08/23 04:36:14;;;;;;;24.67;16.12;;;;;;;21.71;100.00;100312.37;1425757;90;21390;-81
2023/08/23 04:38:41;;;;;;;25.65;16.52;;;;;;;21.76;100.00;100317.91;1432765;91;22411;-81
2023/08/23 04:41:07;;;;;;;24.60;16.73;;;;;;;21.73;100.00;100329.13;1437804;91;21420;-81
2023/08/23 04:43:34;;;;;;;19.57;17.32;;;;;;;21.70;100.00;100326.36;1420254;91;21553;-81
2023/08/23 04:46:00;;;;;;;21.12;16.42;;;;;;;21.74;100.00;100333.47;1429131;91;21382;-81
2023/08/23 04:48:26;;;;;;;26.07;16.67;;;;;;;21.69;100.00;100334.12;1435893;91;22372;-82
2023/08/23 04:50:55;;;;;;;31.02;18.37;;;;;;;21.73;100.00;100340.73;1431939;90;21420;-82
2023/08/23 04:53:22;;;;;;;21.60;16.15;;;;;;;21.77;100.00;100338.41;1435270;91;22403;-82
2023/08/23 04:55:49;;;;;;;28.98;17.27;;;;;;;21.83;100.00;100346.94;1439747;91;21324;-81
2023/08/23 04:58:15;;;;;;;25.00;18.37;;;;;;;21.84;100.00;100351.30;1433298;91;21372;-81
2023/08/23 05:00:44;;;;;;;25.12;17.82;;;;;;;21.92;100.00;100336.16;1410750;91;21528;-81
2023/08/23 05:03:11;;;;;;;26.90;18.35;;;;;;;22.02;100.00;100343.73;1433688;90;21436;-81
2023/08/23 05:05:37;;;;;;;22.55;16.93;;;;;;;22.12;100.00;100340.50;1432698;90;21406;-80
2023/08/23 05:08:04;;;;;;;25.75;18.65;;;;;;;22.22;100.00;100344.88;1432973;91;21397;-80
2023/08/23 05:10:31;;;;;;;22.13;16.77;;;;;;;22.34;100.00;100345.76;1432387;91;21324;-81
2023/08/23 05:13:00;;;;;;;24.82;16.95;;;;;;;22.46;100.00;100333.67;1431370;91;21449;-81
2023/08/23 05:15:27;;;;;;;22.60;17.80;;;;;;;22.56;100.00;100334.46;1438350;90;21515;-81
2023/08/23 05:17:53;;;;;;;25.35;17.67;;;;;;;22.63;100.00;100335.21;1432646;90;21406;-81
2023/08/23 05:20:19;;;;;;;26.00;17.57;;;;;;;22.74;100.00;100330.38;1432618;91;22299;-80
2023/08/23 05:22:45;;;;;;;22.10;18.27;;;;;;;22.84;100.00;100340.07;1433508;90;21383;-81
2023/08/23 05:25:11;;;;;;;20.00;17.95;;;;;;;22.92;100.00;100345.14;1431498;91;21317;-79
2023/08/23 05:27:37;;;;;;;21.80;19.32;;;;;;;23.02;100.00;100334.34;1431502;91;22144;-79
2023/08/23 05:30:05;;;;;;;21.17;18.73;;;;;;;23.10;100.00;100333.50;1420697;91;21412;-79
2023/08/23 05:32:31;;;;;;;20.43;17.40;;;;;;;23.21;100.00;100338.59;1435743;90;21512;-79
2023/08/23 05:34:57;;;;;;;21.00;18.75;;;;;;;23.29;100.00;100343.66;1431069;90;21655;-79
2023/08/23 05:37:23;;;;;;;25.95;19.80;;;;;;;23.37;100.00;100346.02;1434575;90;21316;-80
2023/08/23 05:39:50;;;;;;;25.82;18.90;;;;;;;23.45;100.00;100344.02;1434690;91;21478;-81
2023/08/23 05:42:16;;;;;;;23.57;19.17;;;;;;;23.55;100.00;100345.61;1419217;91;21488;-80
2023/08/23 05:44:42;;;;;;;22.10;18.73;;;;;;;23.65;100.00;100345.86;1433250;91;21514;-80
2023/08/23 05:47:08;;;;;;;28.70;19.85;;;;;;;23.74;100.00;100340.41;1429965;91;21333;-79
2023/08/23 05:49:34;;;;;;;31.00;21.80;;;;;;;23.87;100.00;100345.55;1442363;91;21310;-80
2023/08/23 05:52:00;;;;;;;23.27;20.57;;;;;;;23.99;100.00;100344.70;1432188;90;21523;-80
2023/08/23 05:54:26;;;;;;;24.35;20.08;;;;;;;24.08;100.00;100347.33;1430726;91;21456;-80
2023/08/23 05:56:53;;;;;;;24.75;19.87;;;;;;;24.19;100.00;100353.23;1434146;91;21404;-83
2023/08/23 05:59:22;;;;;;;31.50;19.60;;;;;;;24.28;100.00;100354.53;1435326;91;22462;-82
2023/08/23 06:01:48;;;;;;;21.68;18.92;;;;;;;24.37;100.00;100344.16;1430362;91;21521;-81
2023/08/23 06:04:14;;;;;;;24.98;18.95;;;;;;;24.49;100.00;100345.49;1427985;91;21452;-83
2023/08/23 06:06:40;;;;;;;21.42;19.23;;;;;;;24.55;100.00;100356.70;1435070;91;21354;-81
2023/08/23 06:09:06;;;;;;;22.15;19.40;;;;;;;24.54;100.00;100366.70;1430733;90;21353;-89
2023/08/23 06:11:33;;;;;;;24.18;19.82;;;;;;;24.58;100.00;100369.73;1438732;91;21574;-90
2023/08/23 06:14:21;;;;;;;20.20;18.07;;;;;;;24.65;100.00;100373.64;1418051;91;21747;-87
2023/08/23 06:16:50;;;;;;;20.85;18.48;;;;;;;24.78;100.00;100366.59;1431700;90;22182;-88
2023/08/23 06:19:16;;;;;;;23.05;17.65;;;;;;;24.88;100.00;100363.23;1432093;90;21419;-89
2023/08/23 06:21:43;;;;;;;20.02;17.87;;;;;;;24.96;100.00;100368.26;1431632;90;21367;-88
2023/08/23 06:24:10;;;;;;;22.02;18.17;;;;;;;25.00;100.00;100369.40;1432660;90;21383;-90
2023/08/23 06:26:37;;;;;;;21.87;19.62;;;;;;;25.06;100.00;100383.34;1434549;91;21856;-90
2023/08/23 06:29:06;;;;;;;36.35;21.80;;;;;;;25.10;100.00;100391.25;1429388;90;21449;-89
2023/08/23 06:31:38;;;;;;;27.58;21.42;;;;;;;25.19;100.00;100391.16;1429936;90;21736;-88
2023/08/23 06:34:05;;;;;;;45.73;19.92;;;;;;;25.22;100.00;100391.20;1433694;91;22307;-89
2023/08/23 06:36:31;;;;;;;25.23;18.60;;;;;;;25.27;100.00;100397.25;1430966;91;21735;-89
2023/08/23 06:38:57;;;;;;;21.95;17.48;;;;;;;25.26;100.00;100396.95;1430809;91;21435;-89
2023/08/23 06:41:23;;;;;;;24.80;18.73;;;;;;;25.29;100.00;100397.80;1423893;91;22249;-89
2023/08/23 06:44:00;;;;;;;25.02;19.23;;;;;;;25.36;100.00;100403.36;1428894;91;22451;-89
2023/08/23 06:46:28;;;;;;;25.97;19.48;;;;;;;25.39;100.00;100400.70;1427813;91;21340;-90
2023/08/23 06:48:56;;;;;;;22.85;17.65;;;;;;;25.42;100.00;100397.48;1422652;91;21558;-90
2023/08/23 06:51:23;;;;;;;25.45;19.15;;;;;;;25.50;100.00;100406.56;1433965;91;21413;-90
2023/08/23 06:53:51;;;;;;;22.15;19.85;;;;;;;25.66;100.00;100409.81;1430406;91;21368;-91
2023/08/23 06:56:17;;;;;;;31.35;19.10;;;;;;;25.87;100.00;100408.78;1435995;91;21367;-90
2023/08/23 06:58:44;;;;;;;24.98;20.20;;;;;;;26.01;100.00;100412.78;1424279;91;21545;-84
2023/08/23 07:01:16;;;;;;;24.00;19.77;;;;;;;26.16;100.00;100409.99;1429494;90;21427;-89
2023/08/23 07:03:43;;;;;;;22.50;20.20;;;;;;;26.23;100.00;100403.83;1486195;91;21436;-88
2023/08/23 07:06:13;;;;;;;25.30;20.60;;;;;;;26.17;100.00;100410.27;1428098;91;22561;-82
2023/08/23 07:08:41;;;;;;;20.45;18.45;;;;;;;26.18;100.00;100405.11;1435589;90;21332;-83
2023/08/23 07:11:08;;;;;;;23.90;18.40;;;;;;;26.09;100.00;100404.19;1422269;91;21619;-83
2023/08/23 07:13:40;;;;;;;27.52;17.80;;;;;;;26.01;100.00;100401.09;1423843;91;21367;-82
2023/08/23 07:16:07;;;;;;;20.75;17.32;;;;;;;26.02;100.00;100400.04;1427260;90;21346;-83
2023/08/23 07:18:33;;;;;;;20.80;17.30;;;;;;;26.17;100.00;100402.13;1431137;91;21757;-83
2023/08/23 07:21:05;;;;;;;37.23;17.82;;;;;;;26.32;100.00;100399.59;1429107;91;22398;-83
2023/08/23 07:23:31;;;;;;;19.48;17.35;;;;;;;26.46;100.00;100406.83;1425237;91;21451;-82
2023/08/23 07:25:58;;;;;;;25.25;18.62;;;;;;;26.67;100.00;100407.39;1391981;91;21555;-84
2023/08/23 07:28:27;;;;;;;24.77;18.00;;;;;;;26.80;100.00;100418.38;1431460;90;21442;-85
2023/08/23 07:30:57;;;;;;;25.90;18.40;;;;;;;26.91;100.00;100418.77;1426449;91;21355;-83
2023/08/23 07:33:21;;;;;;;21.40;18.95;;;;;;;27.06;100.00;100418.09;1421276;91;21449;-83
2023/08/23 07:35:57;;;;;;;19.95;17.50;;;;;;;27.24;100.00;100412.84;1422332;91;21368;-83
2023/08/23 07:38:24;;;;;;;20.80;18.48;;;;;;;27.40;100.00;100411.91;1428729;90;21434;-84
2023/08/23 07:40:57;;;;;;;25.17;16.50;;;;;;;27.49;100.00;100410.06;1427123;91;21390;-81
2023/08/23 07:43:24;;;;;;;23.32;15.08;;;;;;;27.52;100.00;100416.34;1432262;90;21301;-79
2023/08/23 07:45:58;;;;;;;20.15;16.02;;;;;;;27.44;100.00;100421.70;1425052;91;21368;-81
2023/08/23 07:48:25;;;;;;;18.98;16.17;;;;;;;27.44;100.00;100414.91;1427918;91;21443;-82
2023/08/23 07:50:55;;;;;;;18.30;15.18;;;;;;;27.52;100.00;100410.91;1410152;91;21370;-83
2023/08/23 07:53:23;;;;;;;22.32;15.90;;;;;;;27.55;100.00;100395.44;1363609;90;21339;-83
2023/08/23 07:55:49;;;;;;;16.15;14.43;;;;;;;27.68;100.00;100384.12;1513541;90;21310;-83
2023/08/23 07:58:16;;;;;;;21.82;15.23;;;;;;;27.84;100.00;100379.06;1425842;91;22470;-83
2023/08/23 08:00:42;;;;;;;17.27;13.95;;;;;;;27.99;100.00;100377.50;1433689;90;21346;-81
2023/08/23 08:03:10;;;;;;;20.95;14.50;;;;;;;28.18;100.00;100381.41;1436279;91;22336;-83
2023/08/23 08:05:36;;;;;;;18.20;13.48;;;;;;;28.28;100.00;100384.70;1435903;90;21634;-84
2023/08/23 08:08:04;;;;;;;16.20;13.78;;;;;;;28.34;100.00;100376.86;1432461;91;21448;-84
2023/08/23 08:10:31;;;;;;;16.10;13.38;;;;;;;28.47;100.00;100383.73;1427467;91;21442;-82
2023/08/23 08:12:58;;;;;;;15.53;12.82;;;;;;;28.54;100.00;100380.19;1432611;91;21426;-82
2023/08/23 08:15:28;;;;;;;24.87;12.70;;;;;;;28.61;100.00;100378.05;1421782;91;21546;-84
2023/08/23 08:17:55;;;;;;;17.00;13.25;;;;;;;28.75;100.00;100368.83;1429550;90;21567;-83
2023/08/23 08:20:24;;;;;;;19.50;13.48;;;;;;;28.87;100.00;100372.66;1429302;91;21367;-84
2023/08/23 08:22:50;;;;;;;17.37;12.68;;;;;;;28.99;100.00;100367.75;1420598;91;22544;-82
2023/08/23 08:25:16;;;;;;;18.90;13.18;;;;;;;29.09;100.00;100369.16;1431520;91;21437;-82
2023/08/23 08:27:42;;;;;;;14.13;12.65;;;;;;;29.17;100.00;100364.51;1434058;90;21405;-83
2023/08/23 08:30:09;;;;;;;17.45;11.65;;;;;;;29.21;100.00;100357.44;1428117;91;21426;-81
2023/08/23 08:32:36;;;;;;;15.88;11.00;;;;;;;29.28;100.00;100361.80;1437328;91;21880;-82
2023/08/23 08:35:02;;;;;;;18.05;12.07;;;;;;;29.32;100.00;100358.78;1431824;90;21368;-82
2023/08/23 08:37:28;;;;;;;13.95;12.50;;;;;;;29.29;100.00;100357.97;1434001;91;21428;-81
2023/08/23 08:39:54;;;;;;;19.05;10.95;;;;;;;29.28;100.00;100363.16;1411495;91;21555;-81
2023/08/23 08:42:21;;;;;;;14.47;11.48;;;;;;;29.28;100.00;100359.06;1435883;91;21637;-81
2023/08/23 08:44:48;;;;;;;15.00;11.35;;;;;;;29.31;100.00;100362.61;1430688;90;21382;-83
2023/08/23 08:47:14;;;;;;;14.35;10.70;;;;;;;29.27;100.00;100357.45;1496640;91;21332;-83
2023/08/23 08:49:40;;;;;;;12.55;11.35;;;;;;;29.42;100.00;100364.23;1361753;90;22168;-83
2023/08/23 08:52:09;;;;;;;16.17;11.25;;;;;;;29.60;100.00;100369.66;1343811;92;21223;-82
2023/08/23 08:54:37;;;;;;;16.17;11.93;;;;;;;29.78;100.00;100369.12;1504876;91;21309;-82
2023/08/23 08:57:04;;;;;;;24.87;10.75;;;;;;;29.81;100.00;100375.94;1366293;91;21263;-84
2023/08/23 08:59:32;;;;;;;18.40;11.90;;;;;;;29.80;100.00;100375.64;1353438;91;21504;-80
2023/08/23 09:01:59;;;;;;;17.82;11.90;;;;;;;29.77;100.00;100381.65;1360149;90;21317;-80
2023/08/23 09:04:25;;;;;;;18.65;12.10;;;;;;;29.77;100.00;100378.38;1367028;91;21397;-82
2023/08/23 09:06:53;;;;;;;14.43;11.68;;;;;;;29.82;100.00;100372.09;1343957;92;22207;-84
2023/08/23 09:09:20;;;;;;;15.18;11.97;;;;;;;29.87;100.00;100372.09;1355376;91;21449;-84
2023/08/23 09:11:47;;;;;;;14.07;11.45;;;;;;;29.90;100.00;100373.71;1355143;91;21349;-84
2023/08/23 09:14:16;;;;;;;20.92;12.95;;;;;;;29.88;100.00;100390.08;1508840;90;21427;-83
2023/08/23 09:16:43;;;;;;;13.60;11.73;;;;;;;29.83;100.00;100403.17;1346052;91;22191;-83
2023/08/23 09:19:11;;;;;;;17.05;11.93;;;;;;;29.73;100.00;100405.12;1444270;90;21441;-84
2023/08/23 09:21:43;;;;;;;19.35;11.45;;;;;;;29.59;100.00;100404.28;1354309;91;21339;-84
2023/08/23 09:28:12;;;;;;;17.00;11.80;;;;;;;29.44;100.00;100412.49;1513556;91;21199;-83
2023/08/23 09:30:48;;;;;;;19.98;11.15;;;;;;;29.53;100.00;100407.30;1365542;91;21272;-80
2023/08/23 09:33:14;;;;;;;17.67;10.78;;;;;;;29.52;100.00;100407.86;1513387;90;22138;-83
2023/08/23 09:35:49;;;;;;;15.90;10.95;;;;;;;29.61;100.00;100404.84;1361769;90;21310;-82
2023/08/23 09:38:21;;;;;;;16.70;11.35;;;;;;;29.80;100.00;100407.82;1493394;90;22204;-82
2023/08/23 09:40:48;;;;;;;14.68;10.98;;;;;;;29.86;100.00;100401.81;1505730;91;22365;-83
2023/08/23 09:43:18;;;;;;;19.67;11.18;;;;;;;29.64;100.00;100409.77;1361056;90;21206;-83
2023/08/23 09:45:48;;;;;;;16.97;10.88;;;;;;;29.46;100.00;100407.56;1511672;90;21148;-82
2023/08/23 09:48:18;;;;;;;20.97;10.50;;;;;;;29.40;100.00;100402.66;1353266;92;21221;-84
2023/08/23 09:50:46;;;;;;;13.98;10.00;;;;;;;29.62;100.00;100399.68;1361843;90;22139;-83
2023/08/23 09:53:27;;;;;;;15.98;9.80;;;;;;;29.74;100.00;100399.37;1358417;91;21243;-82
2023/08/23 09:55:55;;;;;;;19.10;10.20;;;;;;;30.03;100.00;100384.56;1511667;91;21361;-84
2023/08/23 09:58:21;;;;;;;18.57;10.48;;;;;;;30.19;100.00;100383.16;1364297;90;21355;-83
2023/08/23 10:00:51;;;;;;;15.13;10.35;;;;;;;30.39;100.00;100385.83;1404352;91;21515;-82
2023/08/23 10:03:20;;;;;;;15.15;9.93;;;;;;;30.45;100.00;100383.34;1494084;90;22397;-81
2023/08/23 10:05:48;;;;;;;12.13;10.40;;;;;;;30.55;100.00;100381.90;1357356;92;21376;-83
2023/08/23 10:08:15;;;;;;;15.58;10.58;;;;;;;30.58;100.00;100371.81;1357999;91;22065;-83
2023/08/23 10:10:43;;;;;;;17.57;10.70;;;;;;;30.76;100.00;100383.17;1366052;90;21340;-83
2023/08/23 10:13:10;;;;;;;15.23;11.08;;;;;;;30.83;100.00;100385.61;1511773;90;21223;-83
2023/08/23 10:15:39;;;;;;;20.48;10.65;;;;;;;30.73;100.00;100379.64;1360076;91;21376;-81
2023/08/23 10:18:13;;;;;;;12.13;9.93;;;;;;;30.79;100.00;100388.09;1356726;90;22176;-82
2023/08/23 10:20:41;;;;;;;9.95;9.00;;;;;;;30.80;100.00;100391.89;1511791;91;21199;-83
2023/08/23 10:23:16;;;;;;;13.03;8.40;;;;;;;30.86;100.00;100394.05;1358181;92;21272;-84
2023/08/23 10:25:44;;;;;;;11.28;9.53;;;;;;;30.57;100.00;100390.64;1357200;90;21206;-82
2023/08/23 10:28:20;;;;;;;16.32;9.28;;;;;;;30.62;100.00;100388.44;1357838;91;22308;-83
2023/08/23 10:30:49;;;;;;;12.90;9.50;;;;;;;30.62;100.00;100388.99;1361259;91;21538;-83
2023/08/23 10:33:18;;;;;;;10.68;9.30;;;;;;;30.50;100.00;100391.52;1511694;90;21177;-84
2023/08/23 10:35:47;;;;;;;33.08;10.30;;;;;;;30.44;100.00;100395.37;1356892;90;21458;-80
2023/08/23 10:38:14;;;;;;;12.20;8.83;;;;;;;30.17;100.00;100396.27;1357004;91;21287;-81
2023/08/23 10:40:47;;;;;;;13.35;8.75;;;;;;;29.85;100.00;100398.27;1354721;91;21408;-85
2023/08/23 10:43:17;;;;;;;14.70;9.13;;;;;;;29.67;100.00;100392.05;1505487;91;21349;-83
2023/08/23 10:45:57;;;;;;;16.52;9.25;;;;;;;29.37;100.00;100394.22;1356765;90;22123;-84
2023/08/23 10:48:24;;;;;;;10.98;8.68;;;;;;;29.18;100.00;100394.78;1363279;90;21324;-84
2023/08/23 10:54:50;;;;;;;12.05;10.13;;;;;;;28.89;100.00;100386.83;1505806;91;21215;-82
2023/08/23 10:57:17;;;;;;;19.20;9.00;;;;;;;28.78;100.00;100389.52;1352831;91;21228;-82
2023/08/23 10:59:44;;;;;;;12.88;8.90;;;;;;;28.69;100.00;100384.34;1359011;90;21406;-83
2023/08/23 11:02:11;;;;;;;14.07;8.63;;;;;;;28.77;100.00;100376.16;1359514;90;21264;-84
2023/08/23 11:04:38;;;;;;;9.48;7.42;;;;;;;28.90;100.00;100381.64;1392628;91;21460;-83
2023/08/23 11:07:06;;;;;;;12.45;9.58;;;;;;;29.09;100.00;100381.42;1421485;91;21570;-83
2023/08/23 11:09:34;;;;;;;12.58;8.43;;;;;;;29.36;100.00;100377.59;1358276;90;21257;-82
2023/08/23 11:12:01;;;;;;;12.78;7.47;;;;;;;29.52;100.00;100373.78;1358427;90;21206;-83
2023/08/23 11:18:26;;;;;;;19.35;7.72;;;;;;;29.70;100.00;100374.32;1491306;91;21613;-85
2023/08/23 11:20:53;;;;;;;13.58;7.65;;;;;;;29.55;100.00;100375.11;1360004;90;21361;-84